Terminal Aerodrome Forecast
Issued by NWS Twin Cities, MN

Home | Current Version | Previous Version | Text Only | Print | Product List | Glossary Off
Versions: 1 2 3 4 5 6 7 8 9 10 11 12 13 14 15 16 17

000
FTUS43 KMPX 252234 AAA
TAFSTC
TAF AMD
KSTC 252234Z 2523/2618 26009KT P6SM SCT030 BKN050
     FM260600 31004KT 4SM BR SCT010 BKN020
     FM260900 33004KT 1SM BR SCT003 BKN009
     FM261300 35005KT 6SM BR BKN010
     FM261500 36005KT P6SM SCT012 BKN045=

USA.gov is the U.S. government's official web portal to all federal, state and local government web resources and services.